VTBSUDYZ

Guest
Details From VTBS - Bangkok Suvarnabhumi Intl
To UDYZ - Zvartnots
Flight Number -
Tags Generated
Created
Modified
Stats Distance 3,344 nm / 6,192 km
Max Altitude 0 ft / 0 m
Waypoints 6
Social Downloads 1
Likes 0
Share VATSIM

Download

Looking for another format? Having issues loading an existing format? Contact us
Advertisement - Login to hide

Notes

Generated

Route

VTBS PUMEK CAL07 TOLSA ZVR85 UDYZ

ID Type Via Altitude Latitude Longitude Leg Dist Tot Dist Heading (true) Name
O VTBS APT - 0 ft / 0 m 13.70327˚ 100.74297˚ - 0 nm - -
PUMEK FIX - 0 ft / 0 m 15.91806˚ 97.54636˚ 228 nm 228 nm 306° / 305° -
CAL07 FIX - 0 ft / 0 m 22.55022˚ 88.43414˚ 652 nm 880 nm 309° / 306° -
TOLSA FIX - 0 ft / 0 m 32.36639˚ 70.56472˚ 1117 nm 1997 nm 306° / 297° -
ZVR85 FIX - 0 ft / 0 m 40.14715˚ 44.46048˚ 1341 nm 3339 nm 298° / 282° -
O UDYZ APT - 0 ft / 0 m 40.14715˚ 44.37329˚ 4 nm 3343 nm 270° / 270° -

Altitude Profile

Advertisement - Login to hide

Weather


0- 5 10 15 20 25 30 35+ Temperature / ° C

Clouds and Precipitation
Forecast for 2017-12-19 00:00 UTC. Updated an hour ago

Ground ~20,000 ft ~40,000 ft Winds

VTBS

Details ICAO VTBS (BKK)
Name Bangkok Suvarnabhumi Intl
Region Thailand
Timezone Asia/Bangkok (UTC+7.0)
Stats Elevation 5 ft / 2 m (AMSL)
Location 13.680456° 100.747512°
Runways 2
Magnetic Variation 0.571° W

METAR

VTBS 182030Z 01006KT CAVOK 17/10 Q1018 NOSIG

Decode

TAF

TAF VTBS 181700Z 1818/1924 05010KT CAVOK

Decode

Departure Runways

ID Width Length Bearing (true) Bearing (mag) Surface Threshold Offset Overrun Length
01L 200 ft / 61 m 12,194 ft / 3,717 m 14.26° 14.83° Asphalt 0 ft / 0 m 400 ft / 122 m
01R 200 ft / 61 m 13,181 ft / 4,018 m 14.19° 14.76° Asphalt 0 ft / 0 m 400 ft / 122 m
19L 200 ft / 61 m 13,181 ft / 4,018 m 194.19° 194.76° Asphalt 0 ft / 0 m 400 ft / 122 m
19R 200 ft / 61 m 12,194 ft / 3,717 m 194.26° 194.83° Asphalt 0 ft / 0 m 400 ft / 122 m

UDYZ

Details ICAO UDYZ (EVN)
Name ZVARTNOTS
Region Armenia
Timezone Asia/Yerevan (UTC+4.0)
Stats Elevation 2,838 ft / 865 m (AMSL)
Location 40.147271° 44.395880°
Runways 1
Magnetic Variation 6.202° E

METAR

UDYZ 182030Z 00000KT 0800 R09/2000D FZFG NSC M02/M03 Q1024 R09/000070 NOSIG

Decode

TAF

TAF UDYZ 181725Z 1818/1918 VRB04KT 2000 BR NSC TEMPO 1818/1906 0600 FZFG VV003

Decode

Destination Runways

ID Width Length Bearing (true) Bearing (mag) Surface Threshold Offset Overrun Length
09 184 ft / 56 m 12,601 ft / 3,841 m 89.59° 83.39° Asphalt 0 ft / 0 m 0 ft / 0 m
27 184 ft / 56 m 12,601 ft / 3,841 m 269.62° 263.42° Asphalt 0 ft / 0 m 0 ft / 0 m

Approach Navaids

Runway Type Ident Frequency Range Bearing (true) Bearing (mag) Slope Elevation
09 Localiser IZR 108.10 MHz 18 nm / 33 km 89.83° 83.63° - 2,838 ft / 865 m (AMSL)
09 Glidescope IZR 108.10 MHz 10 nm / 19 km 89.61° 83.41° 2.67° 2,838 ft / 865 m (AMSL)